Language: 


Des rapports , des résumés tant et plus, au choix de chacun....


Données Historiques de Météogheer
Journalier Rapport pour Janvier 27, 2018 Unitée:  Les deux    Impériale   Métrique
Suivant Jour »
Journalier Hebdomadaire Mensuel Annuel Sur mesure
  Max: Min: Moyenne:
Température: 47.5 °F /  8.6 °C 37.6 °F /  3.1 °C 42.1 °F /  5.6 °C
Point de rosée: 44.6 °F /  7.0 °C 37.4 °F /  3.0 °C 41 °F /  5 °C
Humidité: 98% 79% 94%
Vent: 17.9mph /  28.8km/h - 5.5mph /  8.9km/h
Rafales: 19.5mph /  31.4km/h - -
Vent- - SSW
Pression: 30.4 in /  1031.0 hPa 30.3 in /  1026.0 hPa -
Pluie: 0.01 in /  0.3 mm    
Historical Graphs
 
 
Données tabulaires pour Janvier 27, 2018
Heure Température Point de rosée Pression Vent Vent Rafales Humidité Pluie Taux (Horaire) Conditions
00:03 41.2 °F /  5.1 °C 41 °F /  5.0 °C 30.3in /  1027.0hPa Calm     98% 0in /  0.0mm
00:08 41 °F /  5.0 °C 41 °F /  5.0 °C 30.3in /  1027.0hPa Calm     98% 0in /  0.0mm
00:13 40.8 °F /  4.9 °C 41 °F /  5.0 °C 30.3in /  1027.0hPa Calm     98% 0in /  0.0mm
00:18 40.6 °F /  4.8 °C 41 °F /  5.0 °C 30.3in /  1027.0hPa Calm     98% 0in /  0.0mm
00:23 40.5 °F /  4.7 °C 41 °F /  5.0 °C 30.3in /  1027.0hPa Calm     98% 0in /  0.0mm
00:28 40.5 °F /  4.7 °C 41 °F /  5.0 °C 30.3in /  1027.0hPa Calm     98% 0in /  0.0mm
00:33 40.5 °F /  4.7 °C 41 °F /  5.0 °C 30.3in /  1026.0hPa Calm     98% 0in /  0.0mm
00:38 40.6 °F /  4.8 °C 41 °F /  5.0 °C 30.3in /  1026.0hPa Calm     98% 0in /  0.0mm
00:43 41 °F /  5.0 °C 41 °F /  5.0 °C 30.3in /  1026.0hPa Calm     98% 0in /  0.0mm
00:48 41 °F /  5.0 °C 41 °F /  5.0 °C 30.3in /  1027.0hPa Calm     98% 0in /  0.0mm
00:53 41 °F /  5.0 °C 41 °F /  5.0 °C 30.3in /  1027.0hPa Calm     98% 0in /  0.0mm
00:58 41 °F /  5.0 °C 41 °F /  5.0 °C 30.3in /  1027.0hPa Calm     98% 0in /  0.0mm
01:03 40.8 °F /  4.9 °C 41 °F /  5.0 °C 30.3in /  1027.0hPa Calm     98% 0in /  0.0mm
01:08 40.6 °F /  4.8 °C 41 °F /  5.0 °C 30.3in /  1027.0hPa Calm     98% 0in /  0.0mm
01:13 40.5 °F /  4.7 °C 41 °F /  5.0 °C 30.3in /  1027.0hPa Calm     98% 0in /  0.0mm
01:18 40.5 °F /  4.7 °C 41 °F /  5.0 °C 30.3in /  1027.0hPa Calm     98% 0in /  0.0mm
01:23 40.5 °F /  4.7 °C 41 °F /  5.0 °C 30.3in /  1027.0hPa Calm     98% 0in /  0.0mm
01:28 40.6 °F /  4.8 °C 41 °F /  5.0 °C 30.3in /  1027.0hPa Calm   3.6mph /  5.8km/h 98% 0in /  0.0mm
01:33 40.6 °F /  4.8 °C 41 °F /  5.0 °C 30.3in /  1027.0hPa Calm   4mph /  6.4km/h 98% 0in /  0.0mm
01:38 40.6 °F /  4.8 °C 41 °F /  5.0 °C 30.3in /  1027.0hPa Calm   4mph /  6.4km/h 98% 0in /  0.0mm
01:43 40.6 °F /  4.8 °C 41 °F /  5.0 °C 30.3in /  1027.0hPa Calm     98% 0in /  0.0mm
01:49 40.6 °F /  4.8 °C 41 °F /  5.0 °C 30.3in /  1027.0hPa Calm     98% 0in /  0.0mm
01:54 40.6 °F /  4.8 °C 41 °F /  5.0 °C 30.3in /  1027.0hPa Calm     98% 0in /  0.0mm
01:59 40.6 °F /  4.8 °C 41 °F /  5.0 °C 30.3in /  1027.0hPa Calm     98% 0in /  0.0mm
02:04 40.8 °F /  4.9 °C 41 °F /  5.0 °C 30.3in /  1027.0hPa Calm     98% 0in /  0.0mm
02:09 40.6 °F /  4.8 °C 41 °F /  5.0 °C 30.3in /  1027.0hPa Calm     98% 0in /  0.0mm
02:14 40.6 °F /  4.8 °C 41 °F /  5.0 °C 30.3in /  1027.0hPa Calm     98% 0in /  0.0mm
02:19 40.5 °F /  4.7 °C 41 °F /  5.0 °C 30.3in /  1027.0hPa Calm     98% 0in /  0.0mm
02:24 40.3 °F /  4.6 °C 41 °F /  5.0 °C 30.3in /  1027.0hPa Calm     98% 0in /  0.0mm
02:29 39.9 °F /  4.4 °C 39.2 °F /  4.0 °C 30.3in /  1027.0hPa Calm     98% 0in /  0.0mm
02:34 39.9 °F /  4.4 °C 39.2 °F /  4.0 °C 30.3in /  1027.0hPa West 2.7mph /  4.3km/h 2.7mph /  4.3km/h 98% 0in /  0.0mm
02:39 39.9 °F /  4.4 °C 39.2 °F /  4.0 °C 30.3in /  1027.0hPa Calm   3.1mph /  5.0km/h 98% 0in /  0.0mm
02:44 40.1 °F /  4.5 °C 41 °F /  5.0 °C 30.3in /  1027.0hPa Calm   3.1mph /  5.0km/h 98% 0in /  0.0mm
02:49 40.1 °F /  4.5 °C 41 °F /  5.0 °C 30.3in /  1027.0hPa Calm   4.3mph /  6.9km/h 98% 0in /  0.0mm
02:54 39.9 °F /  4.4 °C 39.2 °F /  4.0 °C 30.3in /  1027.0hPa Calm   4.3mph /  6.9km/h 98% 0in /  0.0mm
02:59 39.9 °F /  4.4 °C 39.2 °F /  4.0 °C 30.3in /  1026.0hPa Calm   2.5mph /  4.0km/h 98% 0in /  0.0mm
03:04 39.9 °F /  4.4 °C 39.2 °F /  4.0 °C 30.3in /  1026.0hPa Calm   3.8mph /  6.1km/h 98% 0in /  0.0mm
03:09 39.9 °F /  4.4 °C 39.2 °F /  4.0 °C 30.3in /  1026.0hPa WNW 2mph /  3.2km/h 3.8mph /  6.1km/h 98% 0in /  0.0mm
03:14 39.9 °F /  4.4 °C 39.2 °F /  4.0 °C 30.3in /  1026.0hPa Calm   3.8mph /  6.1km/h 98% 0in /  0.0mm
03:19 40.1 °F /  4.5 °C 41 °F /  5.0 °C 30.3in /  1026.0hPa Calm   3.6mph /  5.8km/h 98% 0in /  0.0mm
03:24 39.9 °F /  4.4 °C 39.2 °F /  4.0 °C 30.3in /  1026.0hPa Calm     98% 0in /  0.0mm
03:29 39.9 °F /  4.4 °C 39.2 °F /  4.0 °C 30.3in /  1027.0hPa Calm     98% 0in /  0.0mm
03:34 39.7 °F /  4.3 °C 39.2 °F /  4.0 °C 30.3in /  1027.0hPa Calm     98% 0in /  0.0mm
03:39 39.7 °F /  4.3 °C 39.2 °F /  4.0 °C 30.3in /  1027.0hPa Calm   2.2mph /  3.5km/h 98% 0in /  0.0mm
03:44 39.7 °F /  4.3 °C 39.2 °F /  4.0 °C 30.3in /  1026.0hPa West 4.9mph /  7.9km/h 5.4mph /  8.7km/h 98% 0in /  0.0mm
03:49 39.9 °F /  4.4 °C 39.2 °F /  4.0 °C 30.3in /  1026.0hPa West 4.7mph /  7.6km/h 5.4mph /  8.7km/h 98% 0in /  0.0mm
03:54 39.9 °F /  4.4 °C 39.2 °F /  4.0 °C 30.3in /  1026.0hPa Calm   4.7mph /  7.6km/h 98% 0in /  0.0mm
03:59 39.9 °F /  4.4 °C 39.2 °F /  4.0 °C 30.3in /  1027.0hPa Calm   4.7mph /  7.6km/h 98% 0in /  0.0mm
04:04 39.9 °F /  4.4 °C 39.2 °F /  4.0 °C 30.3in /  1027.0hPa Calm   4.3mph /  6.9km/h 98% 0in /  0.0mm
04:09 39.9 °F /  4.4 °C 39.2 °F /  4.0 °C 30.3in /  1027.0hPa Calm   4.3mph /  6.9km/h 98% 0in /  0.0mm
04:14 39.7 °F /  4.3 °C 39.2 °F /  4.0 °C 30.3in /  1027.0hPa Calm     98% 0in /  0.0mm
04:19 39.7 °F /  4.3 °C 39.2 °F /  4.0 °C 30.3in /  1027.0hPa West 3.4mph /  5.5km/h 3.4mph /  5.5km/h 98% 0in /  0.0mm
04:24 39.7 °F /  4.3 °C 39.2 °F /  4.0 °C 30.3in /  1027.0hPa Calm   3.4mph /  5.5km/h 98% 0in /  0.0mm
04:29 39.7 °F /  4.3 °C 39.2 °F /  4.0 °C 30.3in /  1027.0hPa Calm   3.4mph /  5.5km/h 98% 0in /  0.0mm
04:34 39.7 °F /  4.3 °C 39.2 °F /  4.0 °C 30.3in /  1027.0hPa Calm     98% 0in /  0.0mm
04:39 39.6 °F /  4.2 °C 39.2 °F /  4.0 °C 30.3in /  1027.0hPa Calm     98% 0in /  0.0mm
04:44 39.6 °F /  4.2 °C 39.2 °F /  4.0 °C 30.3in /  1027.0hPa Calm     98% 0in /  0.0mm
04:49 39.4 °F /  4.1 °C 39.2 °F /  4.0 °C 30.3in /  1027.0hPa Calm     98% 0in /  0.0mm
04:54 39.2 °F /  4.0 °C 39.2 °F /  4.0 °C 30.3in /  1027.0hPa Calm     98% 0in /  0.0mm
04:59 39.2 °F /  4.0 °C 39.2 °F /  4.0 °C 30.3in /  1027.0hPa Calm     98% 0in /  0.0mm
05:04 39.2 °F /  4.0 °C 39.2 °F /  4.0 °C 30.3in /  1027.0hPa WSW 4.3mph /  6.9km/h 5.4mph /  8.7km/h 98% 0in /  0.0mm
05:09 39.2 °F /  4.0 °C 39.2 °F /  4.0 °C 30.3in /  1027.0hPa Calm   5.4mph /  8.7km/h 98% 0in /  0.0mm
05:14 39.2 °F /  4.0 °C 39.2 °F /  4.0 °C 30.4in /  1028.0hPa Calm   4.3mph /  6.9km/h 98% 0in /  0.0mm
05:19 39.2 °F /  4.0 °C 39.2 °F /  4.0 °C 30.4in /  1028.0hPa Calm   3.1mph /  5.0km/h 98% 0in /  0.0mm
05:25 39.2 °F /  4.0 °C 39.2 °F /  4.0 °C 30.4in /  1028.0hPa Calm     98% 0in /  0.0mm
05:30 39 °F /  3.9 °C 39.2 °F /  4.0 °C 30.4in /  1028.0hPa Calm   3.1mph /  5.0km/h 98% 0in /  0.0mm
05:35 39 °F /  3.9 °C 39.2 °F /  4.0 °C 30.4in /  1028.0hPa Calm   3.1mph /  5.0km/h 98% 0in /  0.0mm
05:40 39.2 °F /  4.0 °C 39.2 °F /  4.0 °C 30.4in /  1028.0hPa Calm     98% 0in /  0.0mm
05:45 39.2 °F /  4.0 °C 39.2 °F /  4.0 °C 30.4in /  1029.0hPa Calm     98% 0in /  0.0mm
05:50 39.2 °F /  4.0 °C 39.2 °F /  4.0 °C 30.4in /  1029.0hPa Calm   2mph /  3.2km/h 98% 0in /  0.0mm
05:55 39.2 °F /  4.0 °C 39.2 °F /  4.0 °C 30.4in /  1029.0hPa SSW 2.2mph /  3.5km/h 4.3mph /  6.9km/h 98% 0in /  0.0mm
06:00 39.2 °F /  4.0 °C 39.2 °F /  4.0 °C 30.4in /  1029.0hPa Calm   5.4mph /  8.7km/h 98% 0in /  0.0mm
06:05 39 °F /  3.9 °C 39.2 °F /  4.0 °C 30.4in /  1029.0hPa West 4.9mph /  7.9km/h 5.4mph /  8.7km/h 98% 0in /  0.0mm
06:10 38.8 °F /  3.8 °C 39.2 °F /  4.0 °C 30.4in /  1029.0hPa West 3.1mph /  5.0km/h 5.4mph /  8.7km/h 98% 0in /  0.0mm
06:15 38.5 °F /  3.6 °C 39.2 °F /  4.0 °C 30.4in /  1029.0hPa Calm   5.4mph /  8.7km/h 98% 0in /  0.0mm
06:20 38.1 °F /  3.4 °C 37.4 °F /  3.0 °C 30.4in /  1029.0hPa Calm   5.4mph /  8.7km/h 98% 0in /  0.0mm
06:25 37.9 °F /  3.3 °C 37.4 °F /  3.0 °C 30.4in /  1029.0hPa Calm     98% 0in /  0.0mm
06:30 37.9 °F /  3.3 °C 37.4 °F /  3.0 °C 30.4in /  1029.0hPa West 2.7mph /  4.3km/h 4.7mph /  7.6km/h 98% 0in /  0.0mm
06:35 37.8 °F /  3.2 °C 37.4 °F /  3.0 °C 30.4in /  1029.0hPa Calm   4.7mph /  7.6km/h 98% 0in /  0.0mm
06:40 37.6 °F /  3.1 °C 37.4 °F /  3.0 °C 30.4in /  1029.0hPa Calm   3.8mph /  6.1km/h 98% 0in /  0.0mm
06:45 37.6 °F /  3.1 °C 37.4 °F /  3.0 °C 30.4in /  1029.0hPa Calm   2mph /  3.2km/h 98% 0in /  0.0mm
06:50 37.6 °F /  3.1 °C 37.4 °F /  3.0 °C 30.4in /  1029.0hPa Calm   2mph /  3.2km/h 98% 0in /  0.0mm
06:55 37.6 °F /  3.1 °C 37.4 °F /  3.0 °C 30.4in /  1029.0hPa Calm   1.1mph /  1.8km/h 98% 0in /  0.0mm
07:00 37.6 °F /  3.1 °C 37.4 °F /  3.0 °C 30.4in /  1029.0hPa Calm   1.1mph /  1.8km/h 98% 0in /  0.0mm
07:05 37.6 °F /  3.1 °C 37.4 °F /  3.0 °C 30.4in /  1029.0hPa Calm     98% 0in /  0.0mm
07:11 37.8 °F /  3.2 °C 37.4 °F /  3.0 °C 30.4in /  1029.0hPa SSW 3.4mph /  5.5km/h 3.4mph /  5.5km/h 98% 0in /  0.0mm
07:16 37.8 °F /  3.2 °C 37.4 °F /  3.0 °C 30.4in /  1029.0hPa Calm   3.4mph /  5.5km/h 98% 0in /  0.0mm
07:21 37.8 °F /  3.2 °C 37.4 °F /  3.0 °C 30.4in /  1029.0hPa Calm   3.4mph /  5.5km/h 98% 0in /  0.0mm
07:26 37.9 °F /  3.3 °C 37.4 °F /  3.0 °C 30.4in /  1029.0hPa SSW 3.4mph /  5.5km/h 3.8mph /  6.1km/h 98% 0in /  0.0mm
07:31 37.9 °F /  3.3 °C 37.4 °F /  3.0 °C 30.4in /  1029.0hPa Calm   3.8mph /  6.1km/h 98% 0in /  0.0mm
07:36 37.9 °F /  3.3 °C 37.4 °F /  3.0 °C 30.4in /  1029.0hPa Calm   4.3mph /  6.9km/h 98% 0in /  0.0mm
07:41 37.9 °F /  3.3 °C 37.4 °F /  3.0 °C 30.4in /  1029.0hPa Calm   4.3mph /  6.9km/h 98% 0in /  0.0mm
07:46 38.1 °F /  3.4 °C 37.4 °F /  3.0 °C 30.4in /  1029.0hPa Calm     98% 0in /  0.0mm
07:51 38.1 °F /  3.4 °C 37.4 °F /  3.0 °C 30.4in /  1029.0hPa Calm     98% 0in /  0.0mm
07:56 38.1 °F /  3.4 °C 37.4 °F /  3.0 °C 30.4in /  1029.0hPa Calm   2.9mph /  4.7km/h 98% 0in /  0.0mm
08:01 38.3 °F /  3.5 °C 39.2 °F /  4.0 °C 30.4in /  1029.0hPa Calm   4.3mph /  6.9km/h 98% 0in /  0.0mm
08:06 38.3 °F /  3.5 °C 39.2 °F /  4.0 °C 30.4in /  1029.0hPa Calm   4.3mph /  6.9km/h 98% 0in /  0.0mm
08:11 38.3 °F /  3.5 °C 39.2 °F /  4.0 °C 30.4in /  1029.0hPa Calm   0.9mph /  1.4km/h 98% 0in /  0.0mm
08:16 38.5 °F /  3.6 °C 39.2 °F /  4.0 °C 30.4in /  1029.0hPa Calm     98% 0in /  0.0mm
08:21 38.5 °F /  3.6 °C 39.2 °F /  4.0 °C 30.4in /  1029.0hPa WSW 4mph /  6.4km/h 5.6mph /  9.0km/h 98% 0in /  0.0mm
08:26 38.5 °F /  3.6 °C 39.2 °F /  4.0 °C 30.4in /  1029.0hPa Calm   5.8mph /  9.3km/h 98% 0in /  0.0mm
08:31 38.5 °F /  3.6 °C 39.2 °F /  4.0 °C 30.4in /  1030.0hPa WSW 6.3mph /  10.1km/h 6.3mph /  10.1km/h 98% 0in /  0.0mm
08:36 38.5 °F /  3.6 °C 39.2 °F /  4.0 °C 30.4in /  1030.0hPa WSW 4.9mph /  7.9km/h 6.5mph /  10.5km/h 98% 0in /  0.0mm
08:41 38.7 °F /  3.7 °C 39.2 °F /  4.0 °C 30.4in /  1030.0hPa WSW 5.6mph /  9.0km/h 6.5mph /  10.5km/h 98% 0in /  0.0mm
08:46 38.7 °F /  3.7 °C 39.2 °F /  4.0 °C 30.4in /  1030.0hPa WSW 7.4mph /  11.9km/h 7.4mph /  11.9km/h 98% 0in /  0.0mm
08:51 38.7 °F /  3.7 °C 39.2 °F /  4.0 °C 30.4in /  1030.0hPa SSW 4.9mph /  7.9km/h 7.6mph /  12.2km/h 98% 0in /  0.0mm
08:56 38.7 °F /  3.7 °C 39.2 °F /  4.0 °C 30.4in /  1030.0hPa SSW 3.8mph /  6.1km/h 7.6mph /  12.2km/h 98% 0in /  0.0mm
09:01 38.5 °F /  3.6 °C 39.2 °F /  4.0 °C 30.4in /  1030.0hPa SSW 0.9mph /  1.4km/h 6.9mph /  11.1km/h 98% 0in /  0.0mm
09:06 38.7 °F /  3.7 °C 39.2 °F /  4.0 °C 30.4in /  1030.0hPa SSW 4.9mph /  7.9km/h 6.9mph /  11.1km/h 98% 0in /  0.0mm
09:12 38.7 °F /  3.7 °C 39.2 °F /  4.0 °C 30.4in /  1030.0hPa SW 4mph /  6.4km/h 6.3mph /  10.1km/h 98% 0in /  0.0mm
09:17 38.7 °F /  3.7 °C 39.2 °F /  4.0 °C 30.4in /  1030.0hPa Calm   5.6mph /  9.0km/h 98% 0in /  0.0mm
09:22 38.8 °F /  3.8 °C 39.2 °F /  4.0 °C 30.4in /  1030.0hPa Calm   4mph /  6.4km/h 98% 0in /  0.0mm
09:27 38.8 °F /  3.8 °C 39.2 °F /  4.0 °C 30.4in /  1030.0hPa WSW 2mph /  3.2km/h 5.6mph /  9.0km/h 98% 0in /  0.0mm
09:32 39 °F /  3.9 °C 39.2 °F /  4.0 °C 30.4in /  1030.0hPa Calm   5.6mph /  9.0km/h 98% 0in /  0.0mm
09:37 39.2 °F /  4.0 °C 39.2 °F /  4.0 °C 30.4in /  1030.0hPa Calm   5.6mph /  9.0km/h 98% 0in /  0.0mm
09:42 39.4 °F /  4.1 °C 39.2 °F /  4.0 °C 30.4in /  1030.0hPa Calm   7.2mph /  11.6km/h 98% 0in /  0.0mm
09:47 39.6 °F /  4.2 °C 39.2 °F /  4.0 °C 30.4in /  1030.0hPa Calm   7.2mph /  11.6km/h 98% 0in /  0.0mm
09:52 39.9 °F /  4.4 °C 39.2 °F /  4.0 °C 30.4in /  1030.0hPa SSW 4.3mph /  6.9km/h 5.6mph /  9.0km/h 98% 0in /  0.0mm
09:57 40.1 °F /  4.5 °C 41 °F /  5.0 °C 30.4in /  1030.0hPa Calm   4.3mph /  6.9km/h 98% 0in /  0.0mm
10:02 40.3 °F /  4.6 °C 41 °F /  5.0 °C 30.4in /  1030.0hPa SSW 3.6mph /  5.8km/h 7.2mph /  11.6km/h 98% 0in /  0.0mm
10:07 40.5 °F /  4.7 °C 41 °F /  5.0 °C 30.4in /  1030.0hPa SSW 4mph /  6.4km/h 7.2mph /  11.6km/h 98% 0in /  0.0mm
10:12 40.5 °F /  4.7 °C 41 °F /  5.0 °C 30.4in /  1030.0hPa Calm   7.4mph /  11.9km/h 98% 0in /  0.0mm
10:18 40.3 °F /  4.6 °C 41 °F /  5.0 °C 30.4in /  1030.0hPa SSW 7.8mph /  12.6km/h 7.8mph /  12.6km/h 98% 0in /  0.0mm
10:23 40.5 °F /  4.7 °C 41 °F /  5.0 °C 30.4in /  1030.0hPa SSW 4.9mph /  7.9km/h 7.8mph /  12.6km/h 98% 0in /  0.0mm
10:28 40.5 °F /  4.7 °C 41 °F /  5.0 °C 30.4in /  1030.0hPa SW 7.4mph /  11.9km/h 7.4mph /  11.9km/h 98% 0in /  0.0mm
10:33 40.6 °F /  4.8 °C 41 °F /  5.0 °C 30.4in /  1030.0hPa SSW 5.8mph /  9.3km/h 7.4mph /  11.9km/h 98% 0in /  0.0mm
10:38 40.8 °F /  4.9 °C 41 °F /  5.0 °C 30.4in /  1030.0hPa SSW 4.9mph /  7.9km/h 7.6mph /  12.2km/h 98% 0in /  0.0mm
10:43 41.2 °F /  5.1 °C 41 °F /  5.0 °C 30.4in /  1030.0hPa South 5.6mph /  9.0km/h 7.6mph /  12.2km/h 98% 0in /  0.0mm
10:48 41.5 °F /  5.3 °C 42.8 °F /  6.0 °C 30.4in /  1030.0hPa SW 3.8mph /  6.1km/h 7.4mph /  11.9km/h 98% 0in /  0.0mm
10:53 41.5 °F /  5.3 °C 42.8 °F /  6.0 °C 30.4in /  1030.0hPa WSW 4.9mph /  7.9km/h 7.8mph /  12.6km/h 98% 0in /  0.0mm
10:58 41.5 °F /  5.3 °C 42.8 °F /  6.0 °C 30.4in /  1030.0hPa Calm   7.8mph /  12.6km/h 98% 0in /  0.0mm
11:03 41.5 °F /  5.3 °C 42.8 °F /  6.0 °C 30.4in /  1031.0hPa WSW 4.3mph /  6.9km/h 8.5mph /  13.7km/h 98% 0in /  0.0mm
11:08 41.9 °F /  5.5 °C 42.8 °F /  6.0 °C 30.4in /  1031.0hPa South 6.9mph /  11.1km/h 8.5mph /  13.7km/h 98% 0in /  0.0mm
11:13 41.7 °F /  5.4 °C 42.8 °F /  6.0 °C 30.4in /  1031.0hPa SSW 7.2mph /  11.6km/h 8.5mph /  13.7km/h 98% 0in /  0.0mm
11:18 41.7 °F /  5.4 °C 42.8 °F /  6.0 °C 30.4in /  1030.0hPa South 5.6mph /  9.0km/h 9.8mph /  15.8km/h 98% 0in /  0.0mm
11:23 41.7 °F /  5.4 °C 42.8 °F /  6.0 °C 30.4in /  1030.0hPa South 7.6mph /  12.2km/h 9.8mph /  15.8km/h 98% 0in /  0.0mm
11:28 41.7 °F /  5.4 °C 41 °F /  5.0 °C 30.4in /  1030.0hPa South 7.4mph /  11.9km/h 9.8mph /  15.8km/h 97% 0in /  0.0mm
11:33 41.9 °F /  5.5 °C 42.8 °F /  6.0 °C 30.4in /  1030.0hPa WSW 5.6mph /  9.0km/h 9.8mph /  15.8km/h 97% 0in /  0.0mm
11:39 42.1 °F /  5.6 °C 42.8 °F /  6.0 °C 30.4in /  1030.0hPa SSW 5.4mph /  8.7km/h 8.7mph /  14.0km/h 97% 0in /  0.0mm
11:44 42.3 °F /  5.7 °C 42.8 °F /  6.0 °C 30.4in /  1030.0hPa South 6.3mph /  10.1km/h 8.5mph /  13.7km/h 97% 0in /  0.0mm
11:49 42.3 °F /  5.7 °C 42.8 °F /  6.0 °C 30.4in /  1030.0hPa SSW 9.6mph /  15.4km/h 10.7mph /  17.2km/h 97% 0in /  0.0mm
11:54 42.3 °F /  5.7 °C 42.8 °F /  6.0 °C 30.4in /  1030.0hPa SSW 5.8mph /  9.3km/h 10.7mph /  17.2km/h 96% 0in /  0.0mm
11:59 42.4 °F /  5.8 °C 42.8 °F /  6.0 °C 30.4in /  1030.0hPa SSW 5.6mph /  9.0km/h 9.6mph /  15.4km/h 96% 0in /  0.0mm
12:04 42.4 °F /  5.8 °C 42.8 °F /  6.0 °C 30.4in /  1030.0hPa SW 10.1mph /  16.3km/h 11mph /  17.7km/h 96% 0in /  0.0mm
12:09 42.4 °F /  5.8 °C 42.8 °F /  6.0 °C 30.4in /  1030.0hPa South 8.9mph /  14.3km/h 13mph /  20.9km/h 95% 0in /  0.0mm
12:14 42.4 °F /  5.8 °C 41 °F /  5.0 °C 30.4in /  1030.0hPa SW 7.8mph /  12.6km/h 13mph /  20.9km/h 94% 0in /  0.0mm
12:19 42.4 °F /  5.8 °C 41 °F /  5.0 °C 30.4in /  1030.0hPa SW 7.8mph /  12.6km/h 13mph /  20.9km/h 94% 0in /  0.0mm
12:24 42.4 °F /  5.8 °C 41 °F /  5.0 °C 30.4in /  1030.0hPa SSW 8.5mph /  13.7km/h 13mph /  20.9km/h 93% 0in /  0.0mm
12:29 42.6 °F /  5.9 °C 41 °F /  5.0 °C 30.4in /  1029.0hPa South 11mph /  17.7km/h 12.5mph /  20.1km/h 94% 0in /  0.0mm
12:34 42.8 °F /  6.0 °C 41 °F /  5.0 °C 30.4in /  1029.0hPa South 8.1mph /  13.0km/h 11.2mph /  18.0km/h 93% 0in /  0.0mm
12:39 42.8 °F /  6.0 °C 41 °F /  5.0 °C 30.4in /  1029.0hPa SSW 10.5mph /  16.9km/h 11.2mph /  18.0km/h 93% 0in /  0.0mm
12:44 43.3 °F /  6.3 °C 42.8 °F /  6.0 °C 30.4in /  1029.0hPa SSW 10.1mph /  16.3km/h 13mph /  20.9km/h 94% 0in /  0.0mm
12:49 43.5 °F /  6.4 °C 42.8 °F /  6.0 °C 30.4in /  1029.0hPa SSW 6.5mph /  10.5km/h 13.2mph /  21.2km/h 93% 0in /  0.0mm
12:54 44.1 °F /  6.7 °C 42.8 °F /  6.0 °C 30.4in /  1029.0hPa SSW 7.4mph /  11.9km/h 13.2mph /  21.2km/h 92% 0in /  0.0mm
12:59 44.8 °F /  7.1 °C 42.8 °F /  6.0 °C 30.4in /  1030.0hPa SSW 5.4mph /  8.7km/h 12.5mph /  20.1km/h 91% 0in /  0.0mm
13:04 45.7 °F /  7.6 °C 42.8 °F /  6.0 °C 30.4in /  1030.0hPa SSW 10.1mph /  16.3km/h 12.5mph /  20.1km/h 90% 0in /  0.0mm
13:09 45.7 °F /  7.6 °C 42.8 °F /  6.0 °C 30.4in /  1030.0hPa South 11mph /  17.7km/h 12.1mph /  19.5km/h 87% 0in /  0.0mm
13:14 46 °F /  7.8 °C 42.8 °F /  6.0 °C 30.4in /  1029.0hPa South 12.1mph /  19.5km/h 12.8mph /  20.6km/h 87% 0in /  0.0mm
13:19 45.9 °F /  7.7 °C 41 °F /  5.0 °C 30.4in /  1029.0hPa SSW 10.5mph /  16.9km/h 13mph /  20.9km/h 84% 0in /  0.0mm
13:24 45.5 °F /  7.5 °C 41 °F /  5.0 °C 30.4in /  1029.0hPa SSW 10.5mph /  16.9km/h 14.8mph /  23.8km/h 84% 0in /  0.0mm
13:29 45 °F /  7.2 °C 41 °F /  5.0 °C 30.4in /  1029.0hPa SSW 7.6mph /  12.2km/h 15.4mph /  24.8km/h 84% 0in /  0.0mm
13:34 44.8 °F /  7.1 °C 41 °F /  5.0 °C 30.4in /  1029.0hPa South 8.7mph /  14.0km/h 15.4mph /  24.8km/h 85% 0in /  0.0mm
13:39 45 °F /  7.2 °C 41 °F /  5.0 °C 30.4in /  1029.0hPa SSW 9.8mph /  15.8km/h 11.2mph /  18.0km/h 86% 0in /  0.0mm
13:44 45.5 °F /  7.5 °C 42.8 °F /  6.0 °C 30.4in /  1028.0hPa SSW 12.1mph /  19.5km/h 12.1mph /  19.5km/h 86% 0in /  0.0mm
13:49 45.5 °F /  7.5 °C 42.8 °F /  6.0 °C 30.4in /  1028.0hPa SSW 8.7mph /  14.0km/h 15.2mph /  24.5km/h 85% 0in /  0.0mm
13:54 45.5 °F /  7.5 °C 42.8 °F /  6.0 °C 30.4in /  1028.0hPa SSW 6.5mph /  10.5km/h 15.2mph /  24.5km/h 85% 0in /  0.0mm
13:59 45.3 °F /  7.4 °C 41 °F /  5.0 °C 30.4in /  1029.0hPa South 8.7mph /  14.0km/h 12.8mph /  20.6km/h 85% 0in /  0.0mm
14:04 45.5 °F /  7.5 °C 42.8 °F /  6.0 °C 30.4in /  1029.0hPa SSW 6.9mph /  11.1km/h 15.4mph /  24.8km/h 85% 0in /  0.0mm
14:09 46.2 °F /  7.9 °C 42.8 °F /  6.0 °C 30.4in /  1029.0hPa WSW 10.3mph /  16.6km/h 15.4mph /  24.8km/h 85% 0in /  0.0mm
14:14 46.2 °F /  7.9 °C 42.8 °F /  6.0 °C 30.4in /  1029.0hPa SSW 7.8mph /  12.6km/h 16.8mph /  27.0km/h 84% 0in /  0.0mm
14:20 46 °F /  7.8 °C 41 °F /  5.0 °C 30.4in /  1029.0hPa SSW 10.7mph /  17.2km/h 16.8mph /  27.0km/h 83% 0in /  0.0mm
14:25 46.2 °F /  7.9 °C 41 °F /  5.0 °C 30.4in /  1029.0hPa SSW 12.3mph /  19.8km/h 15.2mph /  24.5km/h 83% 0in /  0.0mm
14:30 46.4 °F /  8.0 °C 42.8 °F /  6.0 °C 30.4in /  1029.0hPa South 13.2mph /  21.2km/h 15.2mph /  24.5km/h 82% 0in /  0.0mm
14:35 46.8 °F /  8.2 °C 42.8 °F /  6.0 °C 30.4in /  1029.0hPa SSW 7.8mph /  12.6km/h 15.2mph /  24.5km/h 82% 0in /  0.0mm
14:40 47.1 °F /  8.4 °C 42.8 °F /  6.0 °C 30.4in /  1029.0hPa WSW 8.7mph /  14.0km/h 14.5mph /  23.3km/h 83% 0in /  0.0mm
14:45 47.3 °F /  8.5 °C 42.8 °F /  6.0 °C 30.4in /  1028.0hPa SSW 9.4mph /  15.1km/h 11.4mph /  18.3km/h 83% 0in /  0.0mm
14:50 47.3 °F /  8.5 °C 42.8 °F /  6.0 °C 30.4in /  1028.0hPa SW 8.9mph /  14.3km/h 11.4mph /  18.3km/h 83% 0in /  0.0mm
14:55 47.5 °F /  8.6 °C 42.8 °F /  6.0 °C 30.4in /  1028.0hPa WSW 12.3mph /  19.8km/h 12.3mph /  19.8km/h 83% 0in /  0.0mm
15:00 47.5 °F /  8.6 °C 42.8 °F /  6.0 °C 30.4in /  1029.0hPa SW 7.6mph /  12.2km/h 12.5mph /  20.1km/h 82% 0in /  0.0mm
15:05 47.3 °F /  8.5 °C 42.8 °F /  6.0 °C 30.4in /  1029.0hPa SSW 10.1mph /  16.3km/h 13mph /  20.9km/h 81% 0in /  0.0mm
15:10 46.9 °F /  8.3 °C 42.8 °F /  6.0 °C 30.4in /  1029.0hPa WSW 6mph /  9.7km/h 13mph /  20.9km/h 80% 0in /  0.0mm
15:15 46.9 °F /  8.3 °C 42.8 °F /  6.0 °C 30.4in /  1029.0hPa SSW 8.7mph /  14.0km/h 13mph /  20.9km/h 81% 0in /  0.0mm
15:20 46.8 °F /  8.2 °C 41 °F /  5.0 °C 30.4in /  1029.0hPa SSW 10.3mph /  16.6km/h 12.8mph /  20.6km/h 81% 0in /  0.0mm
15:25 46.8 °F /  8.2 °C 42.8 °F /  6.0 °C 30.4in /  1029.0hPa SSW 6.5mph /  10.5km/h 12.8mph /  20.6km/h 82% 0in /  0.0mm
15:30 46.6 °F /  8.1 °C 41 °F /  5.0 °C 30.4in /  1028.0hPa SSW 13mph /  20.9km/h 13.2mph /  21.2km/h 81% 0in /  0.0mm
15:35 46.6 °F /  8.1 °C 41 °F /  5.0 °C 30.4in /  1028.0hPa SSW 17.9mph /  28.8km/h 17.9mph /  28.8km/h 81% 0in /  0.0mm
15:40 46.6 °F /  8.1 °C 41 °F /  5.0 °C 30.4in /  1028.0hPa WSW 9.8mph /  15.8km/h 19.5mph /  31.4km/h 79% 0in /  0.0mm
15:46 46.4 °F /  8.0 °C 41 °F /  5.0 °C 30.4in /  1029.0hPa SW 10.5mph /  16.9km/h 19.5mph /  31.4km/h 79% 0in /  0.0mm
15:51 46.4 °F /  8.0 °C 41 °F /  5.0 °C 30.4in /  1029.0hPa SSW 13mph /  20.9km/h 15.2mph /  24.5km/h 79% 0in /  0.0mm
15:56 46.2 °F /  7.9 °C 41 °F /  5.0 °C 30.4in /  1029.0hPa SSW 12.1mph /  19.5km/h 14.1mph /  22.7km/h 79% 0in /  0.0mm
16:01 46 °F /  7.8 °C 39.2 °F /  4.0 °C 30.4in /  1029.0hPa WSW 12.3mph /  19.8km/h 15.2mph /  24.5km/h 79% 0in /  0.0mm
16:06 46 °F /  7.8 °C 39.2 °F /  4.0 °C 30.4in /  1029.0hPa South 10.3mph /  16.6km/h 15.2mph /  24.5km/h 79% 0in /  0.0mm
16:11 45.9 °F /  7.7 °C 41 °F /  5.0 °C 30.4in /  1029.0hPa SSW 3.8mph /  6.1km/h 13mph /  20.9km/h 80% 0in /  0.0mm
16:16 45.7 °F /  7.6 °C 41 °F /  5.0 °C 30.4in /  1029.0hPa SSW 7.4mph /  11.9km/h 13mph /  20.9km/h 81% 0in /  0.0mm
16:21 45.5 °F /  7.5 °C 41 °F /  5.0 °C 30.4in /  1029.0hPa SSW 6mph /  9.7km/h 13mph /  20.9km/h 82% 0in /  0.0mm
16:26 45.5 °F /  7.5 °C 41 °F /  5.0 °C 30.4in /  1029.0hPa SSW 9.6mph /  15.4km/h 10.5mph /  16.9km/h 82% 0in /  0.0mm
16:31 45.3 °F /  7.4 °C 41 °F /  5.0 °C 30.4in /  1029.0hPa SSW 5.4mph /  8.7km/h 9.6mph /  15.4km/h 83% 0in /  0.0mm
16:36 45.1 °F /  7.3 °C 41 °F /  5.0 °C 30.4in /  1029.0hPa South 6.5mph /  10.5km/h 11.2mph /  18.0km/h 84% 0in /  0.0mm
16:41 45 °F /  7.2 °C 41 °F /  5.0 °C 30.4in /  1029.0hPa SSW 7.6mph /  12.2km/h 11.2mph /  18.0km/h 84% 0in /  0.0mm
16:46 44.8 °F /  7.1 °C 41 °F /  5.0 °C 30.4in /  1029.0hPa SW 6.9mph /  11.1km/h 13mph /  20.9km/h 84% 0in /  0.0mm
16:51 44.8 °F /  7.1 °C 41 °F /  5.0 °C 30.4in /  1029.0hPa SW 10.5mph /  16.9km/h 13mph /  20.9km/h 85% 0in /  0.0mm
16:56 44.6 °F /  7.0 °C 41 °F /  5.0 °C 30.4in /  1029.0hPa SW 8.5mph /  13.7km/h 14.1mph /  22.7km/h 85% 0in /  0.0mm
17:01 44.4 °F /  6.9 °C 41 °F /  5.0 °C 30.4in /  1028.0hPa SSW 6mph /  9.7km/h 14.1mph /  22.7km/h 85% 0in /  0.0mm
17:06 44.2 °F /  6.8 °C 41 °F /  5.0 °C 30.4in /  1028.0hPa SSW 6.5mph /  10.5km/h 12.3mph /  19.8km/h 85% 0in /  0.0mm
17:11 44.2 °F /  6.8 °C 41 °F /  5.0 °C 30.4in /  1028.0hPa SSW 8.7mph /  14.0km/h 13.4mph /  21.6km/h 86% 0in /  0.0mm
17:16 44.1 °F /  6.7 °C 41 °F /  5.0 °C 30.4in /  1028.0hPa SSW 7.8mph /  12.6km/h 13.4mph /  21.6km/h 86% 0in /  0.0mm
17:21 44.1 °F /  6.7 °C 41 °F /  5.0 °C 30.4in /  1028.0hPa SSW 8.7mph /  14.0km/h 11mph /  17.7km/h 86% 0in /  0.0mm
17:26 44.1 °F /  6.7 °C 41 °F /  5.0 °C 30.4in /  1028.0hPa SSW 10.5mph /  16.9km/h 12.8mph /  20.6km/h 86% 0in /  0.0mm
17:27 44.1 °F /  6.7 °C 41 °F /  5.0 °C 30.4in /  1028.0hPa SSW 5.6mph /  9.0km/h 12.8mph /  20.6km/h 86% 0in /  0.0mm
17:32 43.9 °F /  6.6 °C 41 °F /  5.0 °C 30.3in /  1027.0hPa SSW 5.8mph /  9.3km/h 12.8mph /  20.6km/h 87% 0in /  0.0mm
17:37 44.1 °F /  6.7 °C 41 °F /  5.0 °C 30.3in /  1027.0hPa SSW 7.6mph /  12.2km/h 10.5mph /  16.9km/h 87% 0in /  0.0mm
17:42 44.1 °F /  6.7 °C 41 °F /  5.0 °C 30.3in /  1027.0hPa South 12.8mph /  20.6km/h 12.8mph /  20.6km/h 87% 0in /  0.0mm
17:47 44.1 °F /  6.7 °C 41 °F /  5.0 °C 30.3in /  1027.0hPa SW 6.5mph /  10.5km/h 12.8mph /  20.6km/h 87% 0in /  0.0mm
17:52 44.1 °F /  6.7 °C 41 °F /  5.0 °C 30.3in /  1027.0hPa SSW 10.7mph /  17.2km/h 12.8mph /  20.6km/h 87% 0in /  0.0mm
17:57 44.1 °F /  6.7 °C 41 °F /  5.0 °C 30.3in /  1027.0hPa SSW 6.5mph /  10.5km/h 12.1mph /  19.5km/h 87% 0in /  0.0mm
18:02 44.1 °F /  6.7 °C 41 °F /  5.0 °C 30.4in /  1028.0hPa SSW 7.8mph /  12.6km/h 12.1mph /  19.5km/h 87% 0in /  0.0mm
18:07 44.1 °F /  6.7 °C 41 °F /  5.0 °C 30.4in /  1028.0hPa SSW 11.4mph /  18.3km/h 13mph /  20.9km/h 87% 0in /  0.0mm
18:12 44.1 °F /  6.7 °C 41 °F /  5.0 °C 30.4in /  1028.0hPa SSW 10.3mph /  16.6km/h 13mph /  20.9km/h 87% 0in /  0.0mm
18:17 44.1 °F /  6.7 °C 41 °F /  5.0 °C 30.4in /  1028.0hPa SW 6.5mph /  10.5km/h 13mph /  20.9km/h 87% 0in /  0.0mm
18:22 44.1 °F /  6.7 °C 41 °F /  5.0 °C 30.4in /  1028.0hPa South 10.3mph /  16.6km/h 13mph /  20.9km/h 86% 0in /  0.0mm
18:28 44.1 °F /  6.7 °C 41 °F /  5.0 °C 30.4in /  1028.0hPa SSW 9.8mph /  15.8km/h 15.2mph /  24.5km/h 86% 0in /  0.0mm
18:33 44.1 °F /  6.7 °C 41 °F /  5.0 °C 30.3in /  1027.0hPa SSW 8.7mph /  14.0km/h 15.2mph /  24.5km/h 86% 0in /  0.0mm
18:38 44.1 °F /  6.7 °C 41 °F /  5.0 °C 30.3in /  1027.0hPa SW 13.9mph /  22.4km/h 15.2mph /  24.5km/h 86% 0in /  0.0mm
18:43 43.9 °F /  6.6 °C 41 °F /  5.0 °C 30.3in /  1027.0hPa SW 13mph /  20.9km/h 15.2mph /  24.5km/h 86% 0in /  0.0mm
18:48 43.9 °F /  6.6 °C 41 °F /  5.0 °C 30.3in /  1027.0hPa South 7.8mph /  12.6km/h 15.2mph /  24.5km/h 86% 0in /  0.0mm
18:53 43.9 °F /  6.6 °C 41 °F /  5.0 °C 30.3in /  1027.0hPa South 8.5mph /  13.7km/h 14.8mph /  23.8km/h 87% 0in /  0.0mm
18:58 43.7 °F /  6.5 °C 41 °F /  5.0 °C 30.3in /  1027.0hPa SW 10.1mph /  16.3km/h 15.7mph /  25.3km/h 87% 0in /  0.0mm
19:03 43.7 °F /  6.5 °C 41 °F /  5.0 °C 30.3in /  1027.0hPa SSW 13.2mph /  21.2km/h 17.4mph /  28.0km/h 87% 0in /  0.0mm
19:08 43.7 °F /  6.5 °C 41 °F /  5.0 °C 30.3in /  1027.0hPa South 12.5mph /  20.1km/h 17.4mph /  28.0km/h 87% 0in /  0.0mm
19:13 43.7 °F /  6.5 °C 41 °F /  5.0 °C 30.3in /  1027.0hPa SSW 13mph /  20.9km/h 15.4mph /  24.8km/h 87% 0in /  0.0mm
19:18 43.7 °F /  6.5 °C 41 °F /  5.0 °C 30.3in /  1027.0hPa SW 12.1mph /  19.5km/h 15.4mph /  24.8km/h 88% 0in /  0.0mm
19:23 43.5 °F /  6.4 °C 41 °F /  5.0 °C 30.3in /  1027.0hPa SSW 13mph /  20.9km/h 15.4mph /  24.8km/h 89% 0in /  0.0mm
19:28 43.5 °F /  6.4 °C 41 °F /  5.0 °C 30.3in /  1027.0hPa SSW 9.8mph /  15.8km/h 15.9mph /  25.6km/h 90% 0in /  0.0mm
19:33 43.3 °F /  6.3 °C 41 °F /  5.0 °C 30.3in /  1027.0hPa South 10.3mph /  16.6km/h 15.9mph /  25.6km/h 91% 0in /  0.0mm
19:38 43.3 °F /  6.3 °C 42.8 °F /  6.0 °C 30.3in /  1027.0hPa SSW 10.1mph /  16.3km/h 10.3mph /  16.6km/h 93% 0in /  0.0mm
19:43 43.2 °F /  6.2 °C 42.8 °F /  6.0 °C 30.3in /  1027.0hPa South 17mph /  27.4km/h 17mph /  27.4km/h 93% 0in /  0.0mm
19:48 43.2 °F /  6.2 °C 42.8 °F /  6.0 °C 30.3in /  1027.0hPa SSW 7.6mph /  12.2km/h 17mph /  27.4km/h 94% 0in /  0.0mm
19:53 43 °F /  6.1 °C 42.8 °F /  6.0 °C 30.3in /  1027.0hPa SSW 7.6mph /  12.2km/h 17mph /  27.4km/h 95% 0.01in /  0.3mm
19:58 43 °F /  6.1 °C 42.8 °F /  6.0 °C 30.3in /  1027.0hPa SW 7.4mph /  11.9km/h 16.3mph /  26.2km/h 95% 0.01in /  0.3mm
20:03 43 °F /  6.1 °C 42.8 °F /  6.0 °C 30.3in /  1027.0hPa SSW 9.8mph /  15.8km/h 16.3mph /  26.2km/h 96% 0.01in /  0.3mm
20:08 43 °F /  6.1 °C 42.8 °F /  6.0 °C 30.3in /  1027.0hPa SSW 9.6mph /  15.4km/h 13mph /  20.9km/h 96% 0.01in /  0.3mm
20:15 43 °F /  6.1 °C 42.8 °F /  6.0 °C 30.3in /  1027.0hPa SW 11mph /  17.7km/h 11.4mph /  18.3km/h 97% 0.01in /  0.3mm
20:20 43 °F /  6.1 °C 42.8 °F /  6.0 °C 30.3in /  1026.0hPa SW 11mph /  17.7km/h 11mph /  17.7km/h 97% 0.01in /  0.3mm
20:25 43 °F /  6.1 °C 42.8 °F /  6.0 °C 30.3in /  1026.0hPa SSW 10.5mph /  16.9km/h 11mph /  17.7km/h 97% 0.01in /  0.3mm
20:30 43 °F /  6.1 °C 42.8 °F /  6.0 °C 30.3in /  1027.0hPa SSW 10.5mph /  16.9km/h 11mph /  17.7km/h 97% 0.01in /  0.3mm
20:35 43 °F /  6.1 °C 42.8 °F /  6.0 °C 30.3in /  1027.0hPa SSW 10.5mph /  16.9km/h 10.5mph /  16.9km/h 98% 0.01in /  0.3mm
20:40 43 °F /  6.1 °C 42.8 °F /  6.0 °C 30.3in /  1027.0hPa SSW 10.5mph /  16.9km/h 10.5mph /  16.9km/h 98% 0.01in /  0.3mm
20:45 43 °F /  6.1 °C 42.8 °F /  6.0 °C 30.3in /  1027.0hPa SSW 12.1mph /  19.5km/h 13mph /  20.9km/h 98% 0.01in /  0.3mm
20:50 43.2 °F /  6.2 °C 42.8 °F /  6.0 °C 30.3in /  1027.0hPa SW 10.5mph /  16.9km/h 15.4mph /  24.8km/h 98% 0.01in /  0.3mm
20:55 43.2 °F /  6.2 °C 42.8 °F /  6.0 °C 30.3in /  1027.0hPa WSW 9.2mph /  14.8km/h 15.4mph /  24.8km/h 98% 0in /  0.0mm
21:00 43.3 °F /  6.3 °C 42.8 °F /  6.0 °C 30.3in /  1027.0hPa West 8.5mph /  13.7km/h 14.5mph /  23.3km/h 98% 0in /  0.0mm
21:06 43.3 °F /  6.3 °C 42.8 °F /  6.0 °C 30.3in /  1027.0hPa SSW 10.5mph /  16.9km/h 14.5mph /  23.3km/h 98% 0in /  0.0mm
21:11 43.5 °F /  6.4 °C 42.8 °F /  6.0 °C 30.3in /  1027.0hPa SSW 8.7mph /  14.0km/h 13mph /  20.9km/h 98% 0in /  0.0mm
21:16 43.5 °F /  6.4 °C 42.8 °F /  6.0 °C 30.3in /  1027.0hPa SSW 10.3mph /  16.6km/h 11.9mph /  19.1km/h 98% 0in /  0.0mm
21:21 43.7 °F /  6.5 °C 44.6 °F /  7.0 °C 30.3in /  1027.0hPa SSW 10.7mph /  17.2km/h 13.2mph /  21.2km/h 98% 0in /  0.0mm
21:26 44.1 °F /  6.7 °C 44.6 °F /  7.0 °C 30.3in /  1027.0hPa WSW 10.5mph /  16.9km/h 14.8mph /  23.8km/h 98% 0in /  0.0mm
21:31 44.1 °F /  6.7 °C 42.8 °F /  6.0 °C 30.3in /  1027.0hPa SW 8.7mph /  14.0km/h 18.8mph /  30.2km/h 97% 0in /  0.0mm
21:36 44.2 °F /  6.8 °C 42.8 °F /  6.0 °C 30.3in /  1027.0hPa SSW 10.3mph /  16.6km/h 18.8mph /  30.2km/h 97% 0in /  0.0mm
21:41 44.2 °F /  6.8 °C 42.8 °F /  6.0 °C 30.3in /  1027.0hPa SW 8.5mph /  13.7km/h 15.4mph /  24.8km/h 97% 0in /  0.0mm
21:46 44.2 °F /  6.8 °C 42.8 °F /  6.0 °C 30.3in /  1027.0hPa SW 10.5mph /  16.9km/h 15.4mph /  24.8km/h 97% 0in /  0.0mm
21:51 44.2 °F /  6.8 °C 42.8 °F /  6.0 °C 30.3in /  1027.0hPa SW 10.5mph /  16.9km/h 14.5mph /  23.3km/h 97% 0in /  0.0mm
21:56 44.4 °F /  6.9 °C 44.6 °F /  7.0 °C 30.3in /  1027.0hPa SW 11mph /  17.7km/h 15.4mph /  24.8km/h 98% 0in /  0.0mm
22:01 44.4 °F /  6.9 °C 44.6 °F /  7.0 °C 30.3in /  1027.0hPa SSW 8.9mph /  14.3km/h 15.4mph /  24.8km/h 98% 0in /  0.0mm
22:06 44.6 °F /  7.0 °C 44.6 °F /  7.0 °C 30.3in /  1027.0hPa SW 9.6mph /  15.4km/h 12.8mph /  20.6km/h 97% 0in /  0.0mm
22:11 44.6 °F /  7.0 °C 44.6 °F /  7.0 °C 30.3in /  1027.0hPa SW 6.9mph /  11.1km/h 13mph /  20.9km/h 97% 0in /  0.0mm
22:16 44.6 °F /  7.0 °C 44.6 °F /  7.0 °C 30.3in /  1027.0hPa SW 8.5mph /  13.7km/h 13mph /  20.9km/h 97% 0in /  0.0mm
22:21 44.6 °F /  7.0 °C 44.6 °F /  7.0 °C 30.3in /  1027.0hPa SSW 8.7mph /  14.0km/h 13mph /  20.9km/h 97% 0in /  0.0mm
22:26 44.6 °F /  7.0 °C 44.6 °F /  7.0 °C 30.3in /  1027.0hPa WSW 11.9mph /  19.1km/h 14.1mph /  22.7km/h 97% 0in /  0.0mm
22:31 44.6 °F /  7.0 °C 44.6 °F /  7.0 °C 30.3in /  1026.0hPa SW 13mph /  20.9km/h 19.5mph /  31.4km/h 98% 0in /  0.0mm
22:37 44.6 °F /  7.0 °C 44.6 °F /  7.0 °C 30.3in /  1026.0hPa SW 10.5mph /  16.9km/h 19.5mph /  31.4km/h 98% 0in /  0.0mm
22:42 44.6 °F /  7.0 °C 44.6 °F /  7.0 °C 30.3in /  1026.0hPa SW 8.7mph /  14.0km/h 15.2mph /  24.5km/h 98% 0in /  0.0mm
22:47 44.6 °F /  7.0 °C 44.6 °F /  7.0 °C 30.3in /  1027.0hPa WSW 8.7mph /  14.0km/h 15.2mph /  24.5km/h 98% 0in /  0.0mm
22:52 44.6 °F /  7.0 °C 44.6 °F /  7.0 °C 30.3in /  1027.0hPa SW 8.5mph /  13.7km/h 15.2mph /  24.5km/h 98% 0in /  0.0mm
22:57 44.6 °F /  7.0 °C 44.6 °F /  7.0 °C 30.3in /  1027.0hPa SSW 12.3mph /  19.8km/h 13.2mph /  21.2km/h 98% 0in /  0.0mm
23:02 44.6 °F /  7.0 °C 44.6 °F /  7.0 °C 30.3in /  1026.0hPa SSW 11mph /  17.7km/h 14.3mph /  23.0km/h 98% 0in /  0.0mm
23:07 44.6 °F /  7.0 °C 44.6 °F /  7.0 °C 30.3in /  1026.0hPa WSW 10.1mph /  16.3km/h 14.3mph /  23.0km/h 98% 0in /  0.0mm
23:12 44.6 °F /  7.0 °C 44.6 °F /  7.0 °C 30.3in /  1026.0hPa SW 10.3mph /  16.6km/h 12.5mph /  20.1km/h 98% 0in /  0.0mm
23:17 44.6 °F /  7.0 °C 44.6 °F /  7.0 °C 30.3in /  1027.0hPa SSW 8.7mph /  14.0km/h 12.1mph /  19.5km/h 98% 0in /  0.0mm
23:22 44.6 °F /  7.0 °C 44.6 °F /  7.0 °C 30.3in /  1027.0hPa SSW 7.6mph /  12.2km/h 12.1mph /  19.5km/h 98% 0in /  0.0mm
23:27 44.6 °F /  7.0 °C 44.6 °F /  7.0 °C 30.3in /  1027.0hPa SW 10.1mph /  16.3km/h 13.9mph /  22.4km/h 98% 0in /  0.0mm
23:32 44.6 °F /  7.0 °C 44.6 °F /  7.0 °C 30.3in /  1027.0hPa WSW 8.7mph /  14.0km/h 13.9mph /  22.4km/h 98% 0in /  0.0mm
23:37 44.6 °F /  7.0 °C 44.6 °F /  7.0 °C 30.3in /  1027.0hPa SSW 8.1mph /  13.0km/h 13.2mph /  21.2km/h 98% 0in /  0.0mm
23:42 44.8 °F /  7.1 °C 44.6 °F /  7.0 °C 30.3in /  1027.0hPa SW 9.4mph /  15.1km/h 12.1mph /  19.5km/h 98% 0in /  0.0mm
23:47 44.8 °F /  7.1 °C 44.6 °F /  7.0 °C 30.3in /  1027.0hPa SW 8.7mph /  14.0km/h 11.2mph /  18.0km/h 98% 0in /  0.0mm
23:52 44.8 °F /  7.1 °C 44.6 °F /  7.0 °C 30.3in /  1027.0hPa WSW 6.3mph /  10.1km/h 11mph /  17.7km/h 98% 0in /  0.0mm
23:57 44.8 °F /  7.1 °C 44.6 °F /  7.0 °C 30.3in /  1027.0hPa SSW 7.6mph /  12.2km/h 9.8mph /  15.8km/h 98% 0in /  0.0mm
Données Historique de Météo Turbie

Mise a jour : 26/05/2018 05:48:16
Généré par Cumulus 1.9.4 (1099)